Aeroporto :
LOGIN :

Iscrizione | Disclaimer

   EN    FR    IT 

 










Sommario :    VFR   VFR Marginale   IFR   IFR Intensivo   IFR Molto Intensivo
Visibilità : 
Base nubi : 
>= 8 km
>= 3000ft
5 / 8 km
1000 / 3000 ft
1500m / 5 km
500 / 1000 ft
800 / 1500m
200 / 500 ft
< 800m
< 200 ft
Simboli :   Temporali  Nebbia  Neve Forte  Precipitazioni Forti  Vento > 20 kt
SIGMETs :   Varie  Temporali  Ghiacco  Turbolenza  Onda orograficha  Ceneri Vulcaniche






- Altitudine del aeroporto : 870 ft
- Codice IATA : ETZ


LFJL - Metz Nancy Lorraine

ULTIMO METAR :
  • 291730Z AUTO 05012KT CAVOK 21/03 Q1022 NOSIG

METARs OBSOLETI :
  • 291700Z AUTO 06012KT CAVOK 21/04 Q1022 NOSIG
  • 291630Z AUTO 07011KT 030V100 CAVOK 22/05 Q1022 NOSIG
  • 291600Z AUTO 07013KT 9999 FEW001 22/04 Q1022 NOSIG
  • 291530Z AUTO 08011KT 040V110 CAVOK 22/05 Q1022 NOSIG
  • 291500Z AUTO 06011KT 030V090 CAVOK 22/05 Q1022 NOSIG

TAF TAF LFJL
Valido dal 29 a 18 ore il 30 a 18 ore UTC


291701Z 2918/3018 07010KT CAVOK



MetMap, La meteo Aeronautica in un colpo d'occhio ! - Copyright ORBIFLY Dicembre 2007 - Disclaimer

ORBIFLY MET'MAP TEAM :

Programmazione e sviluppo : Alexandra Zaïnal
Concezione : Baudouin d'Aumeries
Aiuto per la programmazione : Marc-Olivier Méhu
Supporto tecnico e logistico : Manuel Goepfert
Aiuto per la traduzione : Arnaldo La Scala

Contatto : metmap@orbifly.com




FONTI E CREDITI :

   NOAA